Time;durP1;ratioP1;P1;durP2;ratioP2;P2;SDS_P1;SDS_P2;PMS_P1;PMS_P2;Temp;Humidity;BMP_temperature;BMP_pressure;BME280_temperature;BME280_humidity;BME280_pressure;Samples;Min_cycle;Max_cycle;Signal;HPM_P1;HPM_P2
2023/12/24 00:01:28;;;;;;;;;;;3.60;90.80;;;;;;4997743;28;87546;-55
2023/12/24 00:03:54;;;;;;;;;;;3.60;90.80;;;;;;4998073;28;87104;-56
2023/12/24 00:06:20;;;;;;;;;;;3.60;90.70;;;;;;4994475;28;87050;-58
2023/12/24 00:08:46;;;;;;;;;;;3.60;90.80;;;;;;4996806;28;88653;-57
2023/12/24 00:11:11;;;;;;;;;;;3.60;90.80;;;;;;4998403;28;87063;-52
2023/12/24 00:13:37;;;;;;;;;;;3.60;90.80;;;;;;5001296;28;86696;-56
2023/12/24 00:16:03;;;;;;;;;;;3.60;90.70;;;;;;5001216;28;88351;-57
2023/12/24 00:18:28;;;;;;;;;;;3.60;90.90;;;;;;4994774;28;87892;-57
2023/12/24 00:20:54;;;;;;;;;;;3.60;90.80;;;;;;4996513;28;88406;-57
2023/12/24 00:23:19;;;;;;;;;;;3.60;90.80;;;;;;4995809;28;87072;-55
2023/12/24 00:25:45;;;;;;;;;;;3.60;90.70;;;;;;5004342;28;87162;-57
2023/12/24 00:28:11;;;;;;;;;;;3.60;90.70;;;;;;4998930;28;87325;-58
2023/12/24 00:30:36;;;;;;;;;;;3.60;90.70;;;;;;4998609;28;86849;-58
2023/12/24 00:33:02;;;;;;;;;;;3.60;90.70;;;;;;4999515;28;87407;-58
2023/12/24 00:35:27;;;;;;;;;;;3.60;90.80;;;;;;4994154;28;87462;-56
2023/12/24 00:37:56;;;;;;;;;;;3.70;90.80;;;;;;5000346;28;87902;-57
2023/12/24 00:40:22;;;;;;;;;;;3.60;90.70;;;;;;4994834;28;88519;-55
2023/12/24 00:42:47;;;;;;;;;;;3.60;90.70;;;;;;4997978;28;87050;-57
2023/12/24 00:45:13;;;;;;;;;;;3.70;90.70;;;;;;4995938;28;87925;-58
2023/12/24 00:47:39;;;;;;;;;;;3.70;90.60;;;;;;5001204;28;87591;-57
2023/12/24 00:50:07;;;;;;;;;;;3.70;90.60;;;;;;5000226;28;87040;-55
2023/12/24 00:52:33;;;;;;;;;;;3.70;90.70;;;;;;4995572;28;88105;-57
2023/12/24 00:54:59;;;;;;;;;;;3.70;90.60;;;;;;4997650;28;87407;-57
2023/12/24 00:57:24;;;;;;;;;;;3.70;90.60;;;;;;5003284;28;87080;-57
2023/12/24 00:59:50;;;;;;;;;;;3.60;90.60;;;;;;4996687;28;87417;-57
2023/12/24 01:02:16;;;;;;;;;;;3.60;90.60;;;;;;5001136;28;86124;-57
2023/12/24 01:04:41;;;;;;;;;;;3.70;90.60;;;;;;5004628;28;87760;-55
2023/12/24 01:07:07;;;;;;;;;;;3.70;90.70;;;;;;4997541;28;89323;-56
2023/12/24 01:09:32;;;;;;;;;;;3.70;90.60;;;;;;4999756;28;87881;-56
2023/12/24 01:11:58;;;;;;;;;;;3.60;90.70;;;;;;5002562;28;89122;-57
2023/12/24 01:14:23;;;;;;;;;;;3.70;90.70;;;;;;5000044;28;87383;-57
2023/12/24 01:16:49;;;;;;;;;;;3.70;90.70;;;;;;5002375;28;87011;-55
2023/12/24 01:19:14;;;;;;;;;;;3.70;90.60;;;;;;5003531;28;87032;-58
2023/12/24 01:21:40;;;;;;;;;;;3.70;90.60;;;;;;5000940;28;87065;-55
2023/12/24 01:24:06;;;;;;;;;;;3.70;90.50;;;;;;5001808;28;87513;-56
2023/12/24 01:26:34;;;;;;;;;;;3.70;90.60;;;;;;5005472;28;86688;-55
2023/12/24 01:29:00;;;;;;;;;;;3.70;90.70;;;;;;4998697;28;86913;-57
2023/12/24 01:31:27;;;;;;;;;;;3.70;90.70;;;;;;5003396;28;87072;-57
2023/12/24 01:33:53;;;;;;;;;;;3.70;90.70;;;;;;5000762;28;89381;-58
2023/12/24 01:36:19;;;;;;;;;;;3.70;90.60;;;;;;5000009;28;86884;-57
2023/12/24 01:38:45;;;;;;;;;;;3.70;90.70;;;;;;4997175;28;87797;-55
2023/12/24 01:41:10;;;;;;;;;;;3.70;90.70;;;;;;5002591;28;87429;-55
2023/12/24 01:43:36;;;;;;;;;;;3.70;90.70;;;;;;5004259;28;87104;-57
2023/12/24 01:46:02;;;;;;;;;;;3.70;90.60;;;;;;5000305;28;87406;-56
2023/12/24 01:48:28;;;;;;;;;;;3.70;90.70;;;;;;5001156;28;86982;-58
2023/12/24 01:50:54;;;;;;;;;;;3.70;90.60;;;;;;4999338;28;86663;-56
2023/12/24 01:53:19;;;;;;;;;;;3.70;90.60;;;;;;5000354;28;87255;-56
2023/12/24 01:55:47;;;;;;;;;;;3.70;90.60;;;;;;4999022;28;87055;-56
2023/12/24 01:58:13;;;;;;;;;;;3.70;90.60;;;;;;4995777;28;87852;-55
2023/12/24 02:00:40;;;;;;;;;;;3.70;90.60;;;;;;5001869;28;88584;-57
2023/12/24 02:03:05;;;;;;;;;;;3.70;90.50;;;;;;4992896;28;86959;-55
2023/12/24 02:05:31;;;;;;;;;;;3.70;90.60;;;;;;4996249;28;87269;-55
2023/12/24 02:07:57;;;;;;;;;;;3.70;90.60;;;;;;4999707;28;87078;-56
2023/12/24 02:10:22;;;;;;;;;;;3.70;90.50;;;;;;5002082;28;87493;-56
2023/12/24 02:12:49;;;;;;;;;;;3.70;90.60;;;;;;4997874;28;88540;-57
2023/12/24 02:15:14;;;;;;;;;;;3.70;90.60;;;;;;5000454;28;86267;-55
2023/12/24 02:17:41;;;;;;;;;;;3.70;90.50;;;;;;5000452;28;86905;-57
2023/12/24 02:20:06;;;;;;;;;;;3.70;90.60;;;;;;4995423;28;87550;-56
2023/12/24 02:22:32;;;;;;;;;;;3.70;90.40;;;;;;5000050;28;87932;-56
2023/12/24 02:24:57;;;;;;;;;;;3.70;90.50;;;;;;4995719;28;88656;-56
2023/12/24 02:27:29;;;;;;;;;;;3.70;90.40;;;;;;5001889;28;87030;-56
2023/12/24 02:29:56;;;;;;;;;;;3.70;90.40;;;;;;4999375;28;87056;-57
2023/12/24 02:32:23;;;;;;;;;;;3.70;90.40;;;;;;4998385;28;87811;-56
2023/12/24 02:34:48;;;;;;;;;;;3.70;90.40;;;;;;4999496;28;87136;-55
2023/12/24 02:37:14;;;;;;;;;;;3.80;90.40;;;;;;5000140;28;87039;-57
2023/12/24 02:39:41;;;;;;;;;;;3.70;90.40;;;;;;5001298;28;86342;-57
2023/12/24 02:42:07;;;;;;;;;;;3.70;90.30;;;;;;5002589;28;87761;-55
2023/12/24 02:44:34;;;;;;;;;;;3.70;90.70;;;;;;5008542;28;87315;-56
2023/12/24 02:46:59;;;;;;;;;;;3.70;90.40;;;;;;4999048;28;87938;-57
2023/12/24 02:49:25;;;;;;;;;;;3.70;90.40;;;;;;4999613;28;87842;-57
2023/12/24 02:51:51;;;;;;;;;;;3.70;90.50;;;;;;4999609;28;87728;-56
2023/12/24 02:54:16;;;;;;;;;;;3.70;90.50;;;;;;4996853;28;87087;-56
2023/12/24 02:56:42;;;;;;;;;;;3.70;90.40;;;;;;5000074;28;86942;-57
2023/12/24 02:59:07;;;;;;;;;;;3.70;90.50;;;;;;4995921;28;86976;-57
2023/12/24 03:01:33;;;;;;;;;;;3.70;90.40;;;;;;5000421;28;86986;-57
2023/12/24 03:03:59;;;;;;;;;;;3.70;90.40;;;;;;5002343;28;87792;-56
2023/12/24 03:06:24;;;;;;;;;;;3.70;90.40;;;;;;4998985;28;86895;-57
2023/12/24 03:08:50;;;;;;;;;;;3.70;90.40;;;;;;4998128;28;87044;-57
2023/12/24 03:11:16;;;;;;;;;;;3.70;90.40;;;;;;4997226;28;89518;-56
2023/12/24 03:13:41;;;;;;;;;;;3.70;90.30;;;;;;4990854;28;87317;-56
2023/12/24 03:16:07;;;;;;;;;;;3.70;90.40;;;;;;4995439;28;87003;-56
2023/12/24 03:18:32;;;;;;;;;;;3.70;90.40;;;;;;4995768;28;87408;-57
2023/12/24 03:21:00;;;;;;;;;;;3.70;90.30;;;;;;5000437;28;87083;-55
2023/12/24 03:23:26;;;;;;;;;;;3.70;90.40;;;;;;4994903;28;87235;-57
2023/12/24 03:25:53;;;;;;;;;;;3.70;90.40;;;;;;4999877;28;86982;-57
2023/12/24 03:28:18;;;;;;;;;;;3.70;90.70;;;;;;5002287;28;86385;-55
2023/12/24 03:30:44;;;;;;;;;;;3.70;90.30;;;;;;4997927;28;87372;-56
2023/12/24 03:33:09;;;;;;;;;;;3.70;90.30;;;;;;4997449;28;87069;-54
2023/12/24 03:35:35;;;;;;;;;;;3.70;90.30;;;;;;5000261;28;88681;-57
2023/12/24 03:38:01;;;;;;;;;;;3.70;90.40;;;;;;4995345;28;87399;-56
2023/12/24 03:40:26;;;;;;;;;;;3.70;90.50;;;;;;4997641;28;87051;-57
2023/12/24 03:42:52;;;;;;;;;;;3.70;90.30;;;;;;5003579;28;89809;-57
2023/12/24 03:45:17;;;;;;;;;;;3.70;90.50;;;;;;5001649;28;87629;-57
2023/12/24 03:47:43;;;;;;;;;;;3.70;90.30;;;;;;4997494;28;87064;-57
2023/12/24 03:50:08;;;;;;;;;;;3.70;90.20;;;;;;4999299;28;86915;-57
2023/12/24 03:52:34;;;;;;;;;;;3.70;90.30;;;;;;4998878;28;86405;-56
2023/12/24 03:54:59;;;;;;;;;;;3.70;90.40;;;;;;5000049;28;87041;-56
2023/12/24 03:57:25;;;;;;;;;;;3.70;90.30;;;;;;5001961;28;87633;-54
2023/12/24 03:59:50;;;;;;;;;;;3.70;90.20;;;;;;4995156;28;87963;-57
2023/12/24 04:02:16;;;;;;;;;;;3.70;90.20;;;;;;4995763;28;87530;-57
2023/12/24 04:04:46;;;;;;;;;;;3.70;90.30;;;;;;4994038;28;87379;-55
2023/12/24 04:07:14;;;;;;;;;;;3.80;90.20;;;;;;4997139;28;86944;-56
2023/12/24 04:09:40;;;;;;;;;;;3.70;90.30;;;;;;5001082;28;86801;-57
2023/12/24 04:12:06;;;;;;;;;;;3.70;90.30;;;;;;4998438;28;87212;-57
2023/12/24 04:14:32;;;;;;;;;;;3.70;90.20;;;;;;4996712;28;87815;-53
2023/12/24 04:16:57;;;;;;;;;;;3.70;90.60;;;;;;4995277;28;86812;-56
2023/12/24 04:19:23;;;;;;;;;;;3.70;90.20;;;;;;4997969;28;87951;-57
2023/12/24 04:21:48;;;;;;;;;;;3.70;90.20;;;;;;4998150;28;87044;-56
2023/12/24 04:24:14;;;;;;;;;;;3.70;90.30;;;;;;4997996;28;89308;-57
2023/12/24 04:26:39;;;;;;;;;;;3.70;90.20;;;;;;4994388;28;86918;-57
2023/12/24 04:29:05;;;;;;;;;;;3.70;90.10;;;;;;4999100;28;86971;-57
2023/12/24 04:31:31;;;;;;;;;;;3.70;90.20;;;;;;5000826;28;87474;-56
2023/12/24 04:33:56;;;;;;;;;;;3.70;90.50;;;;;;5001380;28;87884;-55
2023/12/24 04:36:22;;;;;;;;;;;3.70;90.20;;;;;;4997695;28;87588;-56
2023/12/24 04:38:47;;;;;;;;;;;3.70;90.20;;;;;;5001394;28;86767;-55
2023/12/24 04:41:19;;;;;;;;;;;3.70;90.30;;;;;;4999059;28;87743;-56
2023/12/24 04:43:44;;;;;;;;;;;3.80;90.30;;;;;;5000123;28;87614;-56
2023/12/24 04:46:10;;;;;;;;;;;3.70;90.30;;;;;;5004192;28;87025;-57
2023/12/24 04:48:36;;;;;;;;;;;3.70;90.20;;;;;;5000722;28;88204;-56
2023/12/24 04:51:01;;;;;;;;;;;3.70;90.30;;;;;;5001359;28;87150;-56
2023/12/24 04:53:27;;;;;;;;;;;3.70;90.30;;;;;;5001349;28;87138;-57
2023/12/24 04:55:54;;;;;;;;;;;3.70;90.20;;;;;;4998044;28;88854;-56
2023/12/24 04:58:19;;;;;;;;;;;3.70;90.30;;;;;;5002864;28;87129;-56
2023/12/24 05:00:45;;;;;;;;;;;3.70;90.50;;;;;;5001338;28;86914;-56
2023/12/24 05:03:10;;;;;;;;;;;3.70;90.30;;;;;;5000149;28;87322;-56
2023/12/24 05:05:36;;;;;;;;;;;3.70;90.30;;;;;;4997689;28;86348;-56
2023/12/24 05:08:02;;;;;;;;;;;3.70;90.40;;;;;;4996696;28;87113;-57
2023/12/24 05:10:28;;;;;;;;;;;3.70;90.30;;;;;;5000452;28;88374;-55
2023/12/24 05:12:53;;;;;;;;;;;3.70;90.40;;;;;;4999964;28;87946;-56
2023/12/24 05:15:19;;;;;;;;;;;3.70;90.20;;;;;;5001683;28;87736;-56
2023/12/24 05:17:45;;;;;;;;;;;3.70;90.20;;;;;;4998895;28;87030;-57
2023/12/24 05:20:10;;;;;;;;;;;3.70;90.30;;;;;;5004057;28;86864;-57
2023/12/24 05:22:36;;;;;;;;;;;3.70;90.20;;;;;;5000341;28;87554;-53
2023/12/24 05:25:01;;;;;;;;;;;3.70;90.20;;;;;;5003414;28;87347;-55
2023/12/24 05:27:27;;;;;;;;;;;3.70;90.20;;;;;;5002050;28;87347;-55
2023/12/24 05:29:52;;;;;;;;;;;3.70;90.30;;;;;;5003783;28;86617;-57
2023/12/24 05:32:18;;;;;;;;;;;3.70;90.30;;;;;;5000636;28;86881;-56
2023/12/24 05:34:45;;;;;;;;;;;3.70;90.20;;;;;;4996420;28;87885;-55
2023/12/24 05:37:11;;;;;;;;;;;3.70;90.20;;;;;;5002209;28;89485;-56
2023/12/24 05:39:40;;;;;;;;;;;3.70;90.20;;;;;;4997789;28;87661;-55
2023/12/24 05:42:06;;;;;;;;;;;3.70;90.20;;;;;;4998251;28;87297;-57
2023/12/24 05:44:33;;;;;;;;;;;3.70;90.30;;;;;;4998451;28;87015;-56
2023/12/24 05:46:59;;;;;;;;;;;3.70;90.50;;;;;;4999299;28;86999;-55
2023/12/24 05:49:24;;;;;;;;;;;3.70;90.50;;;;;;5000524;28;87386;-55
2023/12/24 05:51:50;;;;;;;;;;;3.70;90.50;;;;;;4997684;28;87159;-55
2023/12/24 05:54:15;;;;;;;;;;;3.70;90.50;;;;;;5000499;28;86142;-56
2023/12/24 05:56:41;;;;;;;;;;;3.70;90.40;;;;;;4999994;28;87416;-56
2023/12/24 05:59:06;;;;;;;;;;;3.70;90.50;;;;;;5002700;28;87285;-55
2023/12/24 06:01:32;;;;;;;;;;;3.70;90.60;;;;;;4997503;28;89596;-57
2023/12/24 06:03:58;;;;;;;;;;;3.70;90.50;;;;;;4999286;28;87097;-55
2023/12/24 06:06:23;;;;;;;;;;;3.70;90.50;;;;;;4994322;28;87002;-56
2023/12/24 06:08:49;;;;;;;;;;;3.70;90.40;;;;;;4997117;28;87626;-56
2023/12/24 06:11:17;;;;;;;;;;;3.70;90.50;;;;;;4997328;28;87716;-57
2023/12/24 06:13:43;;;;;;;;;;;3.70;90.30;;;;;;5000083;28;86876;-55
2023/12/24 06:16:11;;;;;;;;;;;3.70;90.30;;;;;;4999598;28;87610;-55
2023/12/24 06:18:37;;;;;;;;;;;3.70;90.40;;;;;;4999713;28;86264;-55
2023/12/24 06:21:03;;;;;;;;;;;3.70;90.40;;;;;;4996691;28;87280;-55
2023/12/24 06:23:29;;;;;;;;;;;3.70;90.40;;;;;;5000043;28;87042;-56
2023/12/24 06:25:54;;;;;;;;;;;3.70;90.40;;;;;;4999015;28;87892;-54
2023/12/24 06:28:20;;;;;;;;;;;3.70;90.40;;;;;;4997251;28;87757;-55
2023/12/24 06:30:45;;;;;;;;;;;3.70;90.50;;;;;;4999298;28;86845;-57
2023/12/24 06:33:11;;;;;;;;;;;3.70;90.70;;;;;;4994001;28;87612;-55
2023/12/24 06:35:37;;;;;;;;;;;3.70;90.50;;;;;;4999942;28;87672;-55
2023/12/24 06:38:02;;;;;;;;;;;3.70;90.60;;;;;;4998513;28;87779;-56
2023/12/24 06:40:28;;;;;;;;;;;3.70;90.50;;;;;;4997328;28;87936;-53
2023/12/24 06:42:53;;;;;;;;;;;3.70;90.50;;;;;;5000140;28;86313;-56
2023/12/24 06:45:19;;;;;;;;;;;3.70;90.50;;;;;;5004204;28;87729;-56
2023/12/24 06:47:45;;;;;;;;;;;3.70;90.50;;;;;;4995742;28;88461;-55
2023/12/24 06:50:10;;;;;;;;;;;3.70;90.50;;;;;;4992823;28;87921;-52
2023/12/24 06:52:36;;;;;;;;;;;3.70;90.50;;;;;;5001517;28;87574;-57
2023/12/24 06:55:02;;;;;;;;;;;3.70;90.40;;;;;;5000624;28;88471;-56
2023/12/24 06:57:28;;;;;;;;;;;3.70;90.50;;;;;;4996949;28;87895;-55
2023/12/24 06:59:53;;;;;;;;;;;3.70;90.50;;;;;;4998799;28;86863;-56
2023/12/24 07:02:19;;;;;;;;;;;3.70;90.50;;;;;;5002076;28;87367;-56
2023/12/24 07:04:45;;;;;;;;;;;3.70;90.60;;;;;;5003283;28;88810;-54
2023/12/24 07:07:11;;;;;;;;;;;3.70;90.60;;;;;;4997339;28;87820;-57
2023/12/24 07:09:36;;;;;;;;;;;3.70;90.50;;;;;;5001246;28;87029;-57
2023/12/24 07:12:02;;;;;;;;;;;3.70;90.50;;;;;;4995964;28;87702;-55
2023/12/24 07:14:28;;;;;;;;;;;3.70;90.50;;;;;;4999687;28;90241;-52
2023/12/24 07:16:53;;;;;;;;;;;3.70;90.50;;;;;;4996035;28;87534;-56
2023/12/24 07:19:19;;;;;;;;;;;3.70;90.50;;;;;;4999082;28;87088;-53
2023/12/24 07:21:45;;;;;;;;;;;3.70;90.50;;;;;;5001287;28;87379;-55
2023/12/24 07:24:11;;;;;;;;;;;3.70;90.50;;;;;;4999975;28;87068;-56
2023/12/24 07:26:36;;;;;;;;;;;3.70;90.60;;;;;;4996027;28;87672;-55
2023/12/24 07:29:02;;;;;;;;;;;3.70;90.50;;;;;;4999360;28;87105;-56
2023/12/24 07:31:28;;;;;;;;;;;3.70;90.50;;;;;;4996104;28;87942;-55
2023/12/24 07:33:53;;;;;;;;;;;3.80;90.50;;;;;;4996971;28;87650;-56
2023/12/24 07:36:19;;;;;;;;;;;3.80;90.50;;;;;;4995371;28;87084;-55
2023/12/24 07:38:44;;;;;;;;;;;3.80;90.40;;;;;;4998033;28;88021;-56
2023/12/24 07:41:10;;;;;;;;;;;3.80;90.40;;;;;;4994696;28;87757;-56
2023/12/24 07:43:35;;;;;;;;;;;3.80;90.30;;;;;;4996712;28;87206;-56
2023/12/24 07:46:01;;;;;;;;;;;3.80;90.40;;;;;;5001707;28;87047;-57
2023/12/24 07:48:27;;;;;;;;;;;3.80;90.30;;;;;;4996415;28;87354;-53
2023/12/24 07:50:52;;;;;;;;;;;3.80;90.30;;;;;;4994549;28;87087;-54
2023/12/24 07:53:18;;;;;;;;;;;3.80;90.30;;;;;;4991847;28;87558;-55
2023/12/24 07:55:44;;;;;;;;;;;3.80;90.20;;;;;;4996767;28;87294;-54
2023/12/24 07:58:09;;;;;;;;;;;3.80;90.20;;;;;;4997456;28;86992;-57
2023/12/24 08:00:35;;;;;;;;;;;3.80;90.20;;;;;;4999253;28;87469;-56
2023/12/24 08:03:01;;;;;;;;;;;3.80;90.20;;;;;;4994495;28;88085;-55
2023/12/24 08:05:26;;;;;;;;;;;3.80;90.20;;;;;;5003600;28;87726;-55
2023/12/24 08:07:52;;;;;;;;;;;3.80;90.20;;;;;;4994689;28;87555;-54
2023/12/24 08:10:17;;;;;;;;;;;3.80;90.30;;;;;;4998975;28;87545;-56
2023/12/24 08:12:43;;;;;;;;;;;3.80;90.30;;;;;;4998611;28;88684;-55
2023/12/24 08:15:08;;;;;;;;;;;3.80;90.20;;;;;;4995561;28;87177;-54
2023/12/24 08:17:34;;;;;;;;;;;3.80;90.20;;;;;;4997630;28;87014;-55
2023/12/24 08:20:00;;;;;;;;;;;3.90;90.20;;;;;;4997748;28;86742;-56
2023/12/24 08:22:25;;;;;;;;;;;3.80;90.10;;;;;;4995015;28;86988;-55
2023/12/24 08:24:51;;;;;;;;;;;3.90;90.20;;;;;;4990842;28;86963;-56
2023/12/24 08:27:16;;;;;;;;;;;3.90;90.10;;;;;;5002236;28;88949;-56
2023/12/24 08:29:42;;;;;;;;;;;3.90;90.20;;;;;;5002922;28;87772;-57
2023/12/24 08:32:07;;;;;;;;;;;3.90;90.20;;;;;;4994812;28;88772;-56
2023/12/24 08:34:33;;;;;;;;;;;3.90;90.20;;;;;;4998102;28;87324;-57
2023/12/24 08:36:58;;;;;;;;;;;3.90;90.30;;;;;;4995213;28;86986;-56
2023/12/24 08:39:24;;;;;;;;;;;3.90;90.20;;;;;;4997561;28;87485;-56
2023/12/24 08:41:50;;;;;;;;;;;3.90;90.30;;;;;;4997618;28;87735;-56
2023/12/24 08:44:16;;;;;;;;;;;3.90;90.30;;;;;;4998157;28;88514;-56
2023/12/24 08:46:45;;;;;;;;;;;3.90;90.30;;;;;;4995807;28;87297;-58
2023/12/24 08:49:11;;;;;;;;;;;3.90;90.30;;;;;;4997357;28;87257;-56
2023/12/24 08:51:37;;;;;;;;;;;3.90;90.40;;;;;;4993991;28;88440;-54
2023/12/24 08:54:02;;;;;;;;;;;3.90;90.40;;;;;;4998003;28;87087;-56
2023/12/24 08:56:33;;;;;;;;;;;3.90;90.50;;;;;;4998526;28;87935;-54
2023/12/24 08:58:58;;;;;;;;;;;3.90;90.40;;;;;;4993445;28;88601;-55
2023/12/24 09:01:24;;;;;;;;;;;4.00;90.50;;;;;;4993284;28;87488;-54
2023/12/24 09:03:50;;;;;;;;;;;3.90;90.50;;;;;;4994219;28;86888;-54
2023/12/24 09:06:15;;;;;;;;;;;4.00;90.50;;;;;;4995668;28;88554;-55
2023/12/24 09:08:41;;;;;;;;;;;4.00;90.50;;;;;;5001427;28;86325;-55
2023/12/24 09:11:06;;;;;;;;;;;4.00;90.50;;;;;;5000132;28;87343;-53
2023/12/24 09:13:32;;;;;;;;;;;4.00;90.50;;;;;;4994826;28;87082;-55
2023/12/24 09:15:57;;;;;;;;;;;4.00;90.50;;;;;;4997494;28;87871;-55
2023/12/24 09:18:23;;;;;;;;;;;4.00;90.60;;;;;;4997247;28;87419;-57
2023/12/24 09:20:50;;;;;;;;;;;4.00;90.60;;;;;;4995054;28;87001;-57
2023/12/24 09:23:16;;;;;;;;;;;4.00;90.60;;;;;;4999209;28;87016;-55
2023/12/24 09:25:41;;;;;;;;;;;4.00;90.70;;;;;;4998434;28;87396;-53
2023/12/24 09:28:07;;;;;;;;;;;4.00;90.70;;;;;;4999860;28;87259;-56
2023/12/24 09:30:32;;;;;;;;;;;4.00;90.60;;;;;;4998323;28;86962;-54
2023/12/24 09:32:58;;;;;;;;;;;4.10;90.80;;;;;;5003087;28;86832;-53
2023/12/24 09:35:23;;;;;;;;;;;4.10;90.80;;;;;;5000486;28;86979;-55
2023/12/24 09:37:49;;;;;;;;;;;4.00;90.70;;;;;;5000156;28;87865;-54
2023/12/24 09:40:14;;;;;;;;;;;4.10;90.70;;;;;;5000787;28;87906;-55
2023/12/24 09:42:40;;;;;;;;;;;4.10;90.80;;;;;;5001207;28;87594;-56
2023/12/24 09:45:06;;;;;;;;;;;4.10;90.80;;;;;;5000685;28;87423;-56
2023/12/24 09:47:31;;;;;;;;;;;4.10;90.80;;;;;;4999937;28;86976;-53
2023/12/24 09:50:00;;;;;;;;;;;4.10;90.80;;;;;;5000411;28;86924;-55
2023/12/24 09:52:26;;;;;;;;;;;4.10;90.90;;;;;;5002346;28;88770;-56
2023/12/24 09:54:52;;;;;;;;;;;4.10;90.80;;;;;;5007751;28;87063;-56
2023/12/24 09:57:17;;;;;;;;;;;4.10;90.90;;;;;;5000873;28;87123;-55
2023/12/24 09:59:43;;;;;;;;;;;4.10;90.80;;;;;;4996780;28;86816;-57
2023/12/24 10:02:08;;;;;;;;;;;4.10;90.80;;;;;;4999143;28;88819;-56
2023/12/24 10:04:34;;;;;;;;;;;4.10;91.00;;;;;;4998490;28;88470;-56
2023/12/24 10:07:00;;;;;;;;;;;4.20;91.00;;;;;;5000179;28;87133;-57
2023/12/24 10:09:42;;;;;;;;;;;4.20;90.90;;;;;;5001286;28;88451;-57
2023/12/24 10:12:08;;;;;;;;;;;4.20;91.20;;;;;;4999003;28;87495;-56
2023/12/24 10:14:34;;;;;;;;;;;4.20;90.90;;;;;;4999136;28;87057;-56
2023/12/24 10:17:01;;;;;;;;;;;4.20;91.00;;;;;;5006584;28;87345;-55
2023/12/24 10:19:27;;;;;;;;;;;4.20;91.00;;;;;;4996717;28;87170;-55
2023/12/24 10:22:08;;;;;;;;;;;4.20;91.10;;;;;;4998391;28;86765;-56
2023/12/24 10:24:35;;;;;;;;;;;4.20;91.10;;;;;;5001303;28;88435;-55
2023/12/24 10:27:14;;;;;;;;;;;4.20;91.10;;;;;;4997149;28;87212;-57
2023/12/24 10:29:41;;;;;;;;;;;4.20;91.10;;;;;;4996366;28;87990;-57
2023/12/24 10:32:10;;;;;;;;;;;4.20;91.10;;;;;;4997918;28;87527;-56
2023/12/24 10:34:37;;;;;;;;;;;4.30;91.10;;;;;;4995893;28;86998;-55
2023/12/24 10:37:32;;;;;;;;;;;4.30;91.10;;;;;;5000989;28;87847;-57
2023/12/24 10:40:08;;;;;;;;;;;4.30;91.20;;;;;;4987158;28;87014;-56
2023/12/24 10:42:37;;;;;;;;;;;4.30;91.10;;;;;;4995721;28;88190;-56
2023/12/24 10:47:48;;;;;;;;;;;4.30;91.20;;;;;;4994046;28;86745;-55
2023/12/24 10:50:14;;;;;;;;;;;4.30;91.10;;;;;;4995690;28;87064;-57
2023/12/24 10:52:39;;;;;;;;;;;4.30;91.20;;;;;;4998876;28;87510;-57
2023/12/24 10:55:06;;;;;;;;;;;4.40;91.20;;;;;;4997753;28;87950;-55
2023/12/24 10:57:50;;;;;;;;;;;4.40;91.20;;;;;;4997264;28;88818;-55
2023/12/24 11:00:16;;;;;;;;;;;4.40;91.20;;;;;;4998941;28;87571;-56
2023/12/24 11:02:43;;;;;;;;;;;4.40;91.20;;;;;;4998139;28;87922;-54
2023/12/24 11:05:09;;;;;;;;;;;4.40;91.40;;;;;;4996733;28;87221;-57
2023/12/24 11:07:34;;;;;;;;;;;4.40;91.20;;;;;;4997961;28;86916;-56
2023/12/24 11:10:07;;;;;;;;;;;4.40;91.30;;;;;;4997560;28;86987;-57
2023/12/24 11:12:33;;;;;;;;;;;4.40;91.20;;;;;;4994865;28;86752;-56
2023/12/24 11:14:59;;;;;;;;;;;4.40;91.30;;;;;;5002724;28;87076;-52
2023/12/24 11:17:33;;;;;;;;;;;4.40;91.40;;;;;;4997015;28;86825;-55
2023/12/24 11:20:18;;;;;;;;;;;4.40;91.40;;;;;;4997437;28;88351;-56
2023/12/24 11:23:02;;;;;;;;;;;4.50;91.40;;;;;;5001121;28;87062;-56
2023/12/24 11:25:37;;;;;;;;;;;4.50;91.40;;;;;;4996962;28;87166;-57
2023/12/24 11:28:05;;;;;;;;;;;4.50;91.50;;;;;;4996092;28;87143;-56
2023/12/24 11:30:49;;;;;;;;;;;4.50;91.50;;;;;;4995081;28;86943;-57
2023/12/24 11:33:34;;;;;;;;;;;4.50;91.40;;;;;;4994997;28;88383;-56
2023/12/24 11:36:00;;;;;;;;;;;4.50;91.60;;;;;;4995489;28;86964;-55
2023/12/24 11:38:35;;;;;;;;;;;4.40;91.50;;;;;;4996559;28;86672;-55
2023/12/24 11:41:03;;;;;;;;;;;4.50;91.70;;;;;;4995907;28;88405;-54
2023/12/24 11:43:29;;;;;;;;;;;4.50;91.50;;;;;;4997439;28;87082;-57
2023/12/24 11:45:55;;;;;;;;;;;4.50;91.50;;;;;;4999172;28;87907;-55
2023/12/24 11:48:20;;;;;;;;;;;4.50;91.70;;;;;;4999045;28;87003;-56
2023/12/24 11:50:46;;;;;;;;;;;4.60;91.60;;;;;;4996083;28;86999;-56
2023/12/24 11:53:11;;;;;;;;;;;4.60;91.60;;;;;;4999298;28;87382;-53
2023/12/24 11:55:37;;;;;;;;;;;4.60;91.60;;;;;;4997306;28;87901;-56
2023/12/24 11:58:03;;;;;;;;;;;4.60;91.70;;;;;;4995734;28;87993;-54
2023/12/24 12:00:28;;;;;;;;;;;4.60;91.70;;;;;;4997074;28;87178;-57
2023/12/24 12:02:55;;;;;;;;;;;4.60;91.80;;;;;;4993350;28;86570;-55
2023/12/24 12:05:21;;;;;;;;;;;4.70;91.80;;;;;;4997279;28;87418;-54
2023/12/24 12:07:47;;;;;;;;;;;4.70;91.80;;;;;;4994657;28;87284;-55
2023/12/24 12:10:12;;;;;;;;;;;4.70;91.70;;;;;;4998406;28;88144;-56
2023/12/24 12:12:38;;;;;;;;;;;4.70;91.80;;;;;;4994265;28;86912;-55
2023/12/24 12:15:04;;;;;;;;;;;4.70;91.70;;;;;;4996993;28;87503;-54
2023/12/24 12:17:29;;;;;;;;;;;4.70;91.70;;;;;;4998895;28;87021;-56
2023/12/24 12:19:55;;;;;;;;;;;4.80;91.80;;;;;;4997854;28;87445;-55
2023/12/24 12:22:20;;;;;;;;;;;4.80;91.80;;;;;;4995295;28;87048;-56
2023/12/24 12:24:46;;;;;;;;;;;4.80;91.70;;;;;;4993953;28;87915;-54
2023/12/24 12:27:11;;;;;;;;;;;4.80;91.80;;;;;;4998213;28;86792;-55
2023/12/24 12:29:37;;;;;;;;;;;4.80;91.70;;;;;;4998213;28;86793;-55
2023/12/24 12:32:03;;;;;;;;;;;4.80;91.70;;;;;;4998125;28;87027;-56
2023/12/24 12:34:28;;;;;;;;;;;4.90;91.80;;;;;;4993576;28;87939;-55
2023/12/24 12:36:54;;;;;;;;;;;4.80;91.70;;;;;;4998051;28;87853;-56
2023/12/24 12:39:19;;;;;;;;;;;4.80;91.70;;;;;;4999982;28;87455;-56
2023/12/24 12:41:45;;;;;;;;;;;4.90;91.80;;;;;;5000489;28;86945;-54
2023/12/24 12:44:10;;;;;;;;;;;4.80;91.80;;;;;;4997921;28;87079;-56
2023/12/24 12:46:36;;;;;;;;;;;4.90;91.90;;;;;;4995254;28;87391;-55
2023/12/24 12:49:02;;;;;;;;;;;4.90;91.90;;;;;;4999280;28;87076;-55
2023/12/24 12:51:27;;;;;;;;;;;4.90;91.80;;;;;;4998241;28;86601;-56
2023/12/24 12:53:53;;;;;;;;;;;4.90;91.90;;;;;;5001882;28;87006;-56
2023/12/24 12:56:18;;;;;;;;;;;4.90;91.80;;;;;;4997373;28;87532;-55
2023/12/24 12:58:53;;;;;;;;;;;4.90;91.80;;;;;;4996842;28;88350;-52
2023/12/24 13:01:18;;;;;;;;;;;4.90;91.80;;;;;;4997382;28;86888;-56
2023/12/24 13:03:59;;;;;;;;;;;5.00;91.90;;;;;;5000672;28;86990;-55
2023/12/24 13:06:25;;;;;;;;;;;5.00;92.00;;;;;;5000166;28;88716;-55
2023/12/24 13:08:51;;;;;;;;;;;5.00;91.90;;;;;;4996713;28;87931;-54
2023/12/24 13:11:19;;;;;;;;;;;5.00;91.90;;;;;;5000730;28;86956;-56
2023/12/24 13:13:46;;;;;;;;;;;5.00;92.00;;;;;;5001145;28;86859;-55
2023/12/24 13:16:12;;;;;;;;;;;5.00;92.00;;;;;;4998324;28;87884;-57
2023/12/24 13:18:39;;;;;;;;;;;5.10;92.00;;;;;;4999934;28;88021;-55
2023/12/24 13:21:07;;;;;;;;;;;5.10;92.10;;;;;;4997618;28;86997;-54
2023/12/24 13:23:32;;;;;;;;;;;5.10;92.00;;;;;;4998942;28;88073;-56
2023/12/24 13:25:58;;;;;;;;;;;5.10;92.00;;;;;;5000322;28;87466;-55
2023/12/24 13:28:24;;;;;;;;;;;5.10;92.00;;;;;;4997923;28;87057;-57
2023/12/24 13:30:50;;;;;;;;;;;5.10;92.10;;;;;;4996567;28;87016;-56
2023/12/24 13:33:16;;;;;;;;;;;5.20;92.00;;;;;;5002685;28;88573;-57
2023/12/24 13:35:43;;;;;;;;;;;5.20;92.10;;;;;;4997081;28;86848;-54
2023/12/24 13:38:11;;;;;;;;;;;5.20;92.10;;;;;;4996799;28;88879;-56
2023/12/24 13:40:37;;;;;;;;;;;5.20;92.10;;;;;;5001849;28;86311;-52
2023/12/24 13:43:05;;;;;;;;;;;5.20;92.10;;;;;;5000734;28;87519;-55
2023/12/24 13:45:31;;;;;;;;;;;5.20;92.10;;;;;;4998425;28;87504;-57
2023/12/24 13:47:57;;;;;;;;;;;5.30;92.10;;;;;;4998126;28;88185;-54
2023/12/24 13:50:23;;;;;;;;;;;5.20;92.10;;;;;;4998812;28;87682;-57
2023/12/24 13:52:48;;;;;;;;;;;5.30;92.10;;;;;;4998463;28;87448;-55
2023/12/24 13:55:16;;;;;;;;;;;5.30;92.10;;;;;;5007401;28;87017;-55
2023/12/24 13:57:42;;;;;;;;;;;5.30;92.10;;;;;;4996454;28;88715;-56
2023/12/24 14:00:08;;;;;;;;;;;5.30;92.10;;;;;;5003444;28;87069;-52
2023/12/24 14:02:33;;;;;;;;;;;5.30;92.00;;;;;;4996595;28;87044;-57
2023/12/24 14:04:59;;;;;;;;;;;5.30;92.10;;;;;;4998018;28;86867;-53
2023/12/24 14:07:24;;;;;;;;;;;5.40;92.20;;;;;;4996443;28;87041;-56
2023/12/24 14:09:50;;;;;;;;;;;5.40;92.20;;;;;;5000130;28;87663;-57
2023/12/24 14:12:16;;;;;;;;;;;5.40;92.20;;;;;;4991257;28;88388;-56
2023/12/24 14:14:42;;;;;;;;;;;5.40;92.20;;;;;;4995018;28;87030;-56
2023/12/24 14:17:07;;;;;;;;;;;5.40;92.20;;;;;;4999042;28;86990;-55
2023/12/24 14:19:33;;;;;;;;;;;5.50;92.20;;;;;;4998557;28;87029;-55
2023/12/24 14:21:58;;;;;;;;;;;5.40;92.10;;;;;;4999083;28;87033;-55
2023/12/24 14:24:24;;;;;;;;;;;5.50;92.20;;;;;;4996746;28;87185;-55
2023/12/24 14:26:49;;;;;;;;;;;5.50;92.20;;;;;;4994165;28;86932;-55
2023/12/24 14:29:15;;;;;;;;;;;5.50;92.20;;;;;;4994348;28;86822;-53